Situs API Video Gratis Terbaik

AVDBAPI.COM

Cari katalog, periksa data, dan salin URL API bersih dari satu dasbor cepat.

Telegram Gabung komunitas Telegram untuk update!
Today
0
Pembaruan Hari Ini
Censored
313977
Video Disensor
Total
474136
Total Video

Daftar Video

Data terbaru diurutkan berdasarkan waktu pembaruan.

ID Nama CODE Kategori Diperbarui API
268448 102219-01 Aku Gak Bisa Lupa Rasa Nikmat Pas Dicentot Terakhir Kali 102219-01 Tanpa sensor 2025-08-29 13:39:40 API
268447 HEYZO-2290 Yayoi [Yayoi] Main Igu-play, kaget banget suaranya mirip banget suara anime! HEYZO-2290 Tanpa sensor 2025-08-29 13:39:30 API
268446 031919-054 Aku Ingin Menikah Lagi! ~ Wanita Matang Cantik yang Ingin Jadi Pelacur di Atas Ranjang ~ 031919-054 Tanpa sensor 2025-08-29 13:39:20 API
268445 PONDO-082818_735 Tokimeki -Si Langsing Seksi dengan Tahi Lalat Menawan di Sekitar Matanya- PONDO-082818_735 Tanpa sensor 2025-08-29 13:39:10 API
268444 062420-001 Reika Ayano, tubuh istri suci yang basah kuyup karena bos suaminya 062420-001 Tanpa sensor 2025-08-29 13:39:00 API
268442 H0930-KI200423 Chieko Hisai Wanita Matang 51 Tahun H0930-KI200423 Tanpa sensor 2025-08-29 13:38:40 API
268441 102419-01 Banjir Sperma di Dalam Vagina Anak Perempuan yang Ingin Melepaskan Nafsunya 102419-01 Tanpa sensor 2025-08-29 13:38:30 API
268439 H4610-KI210207 Akemi Kawase Gadis 25 Tahun H4610-KI210207 Tanpa sensor 2025-08-29 13:38:10 API
268438 FC2-PPV-4464375 Guru Jalang Chihiro vol.1 FC2-PPV-4464375 Tanpa sensor 2025-08-29 13:38:00 API
268437 031919-053 053 Akiko Narita Keluarin Sperma di Payudara Istrinya 031919-053 Tanpa sensor 2025-08-29 13:37:50 API
268436 062520-001 Antologi Aokan: Maya Kawamura, Saya Tachibana, Maki Hojo, Mayuka Akimoto, Eri Makino 062520-001 Tanpa sensor 2025-08-29 13:37:40 API
268435 082818_735 Tokimeki ~ Si Cantik Ramping dengan Tahi Lalat Seksi di Sekitar Matanya ~ 082818_735 Tanpa sensor 2025-08-29 13:37:30 API
268434 H0930-KI200428 Kazuko Shimatani 36 Tahun H0930-KI200428 Tanpa sensor 2025-08-29 13:37:20 API
268433 HEYZO-2261 Netri negosiasi fisik dengan cantik cup F menggunakan sabun mewah HEYZO-2261 Tanpa sensor 2025-08-29 13:37:10 API
268432 K1438 Wanita Mangsa K1438 Tanpa sensor 2025-08-29 13:37:00 API
268431 FC2-PPV-4460542 Hasil negosiasi besar dengan cewek nenen gede cup F adalah lari.. Sangat erotis sampai bikin gila FC2-PPV-4460542 Tanpa sensor 2025-08-29 13:36:50 API
268430 032119-055 055 Ero yang menggoda adalah wanita matang yang menawan dan dikocok habis 032119-055 Tanpa sensor 2025-08-29 13:36:40 API
268429 102619-01 Wawancara Amatir ~ Terima Kasih, Hanya di Sini Tempatnya ~ 102619-01 Tanpa sensor 2025-08-29 13:36:30 API
268428 H4610-KI210206 Gold Pack: Gadis 20 Tahun Yang Menggoda H4610-KI210206 Tanpa sensor 2025-08-29 13:36:20 API
268427 H0930-ORI1568 Ryoko Wakayama Wanita 33 Tahun H0930-ORI1568 Tanpa sensor 2025-08-29 13:36:10 API
268425 083018_736 Wajah siang hari seorang istri yang penuh nafsu dan tak bisa diceritakan pada siapapun 083018_736 Tanpa sensor 2025-08-29 13:35:50 API
268424 HEYZO-2262 Nonstop!! Surga Injeksi - Semprotkan Sperma Sebanyak HEYZO-2262 Tanpa sensor 2025-08-29 13:35:40 API
268422 FC2-PPV-4464012 Simpanan Muda 19 Tahun, Sperma Pertama yang Hakiki! Main "Container Yoko Sex" dan "Ocean Cart" Cuma Berjarak 10cm dari Orang Lewat FC2-PPV-4464012 Tanpa sensor 2025-08-29 13:35:20 API
268421 032219-056 056 Single Mother Sensitif Anal Terangsang Lewat Anus 032219-056 Tanpa sensor 2025-08-29 13:35:10 API
268420 H0930-KI200426 Wanita Seksi 39 Tahun Yukari Yoshizaki H0930-KI200426 Tanpa sensor 2025-08-29 13:35:00 API
268419 H4610-TK0029 Kiyoka Matsuura, Gadis 20 Tahun yang Seksi H4610-TK0029 Tanpa sensor 2025-08-29 13:34:50 API
268418 062620-001 Si Cantik Berbalut Jeans Vol.29 Sumire Mika 062620-001 Tanpa sensor 2025-08-29 13:34:40 API
268417 K1439 Wanita Mangsa Miho Hayakawa K1439 Tanpa sensor 2025-08-29 13:34:30 API
268415 103119-01 Setelah kencan panas, banjir sperma disemprotkan ke dalam vagina cewek polos 103119-01 Tanpa sensor 2025-08-29 13:34:10 API
268414 FC2-PPV-4464435 Kata-kata Cabul: "Benci FC2-PPV-4464435 Tanpa sensor 2025-08-29 13:34:00 API
268412 HEYZO-2264 Kenikmatan dengan Massage Erotis! ~ Kasus Ryu Enami ~ HEYZO-2264 Tanpa sensor 2025-08-29 13:33:40 API
268411 090118_737 Koleksi Model Seksi Yuuki Miu 090118_737 Tanpa sensor 2025-08-29 13:33:30 API
268410 H0930-KI200425 Gadis 20 Tahun Dengan Fetish Ngompol yang Becek H0930-KI200425 Tanpa sensor 2025-08-29 13:33:20 API
268409 MIFD-185 Jika Bisa Menahan Blowjob Basah dan Seksi Ini, Hadiahnya Adalah Creampie di Mulut Jika Kamu Ejakulasi, Jangan Khawatir Karena Rima Kamishi Adalah Tipe Kakak Feminin yang Hobi Menelan Sperma MIFD-185 Disensor (Mosaik) 2025-08-29 13:33:10 API
268408 SKY-222 Sky Angel 140 Megumi Shino SKY-222 Tanpa sensor 2025-08-29 13:33:00 API
268407 032319-057 057 Merayu Istri Muda Cerai 40 Tahun! Istri Cantik Berambut Hitam dengan Payudara Besar 032319-057 Tanpa sensor 2025-08-29 13:32:50 API
268406 UMSO-493 Suami Tetangga Bawa Papan Pengumuman Sambil Menggoda Kurir Delivery dan Ngisep Kontol di Depan Pintu! ! VOL.02 UMSO-493 Disensor (Mosaik) 2025-08-29 13:32:40 API
268405 C0930-KI191103 Chiemi Shima Wanita 28 Tahun C0930-KI191103 Tanpa sensor 2025-08-29 13:32:30 API
268404 062720-001 BOGA x BOGA ~ Emi Sakurai memuji permainan saya ~ Emi Sakurai 062720-001 Tanpa sensor 2025-08-29 13:32:20 API
268403 FC2-PPV-4437976 Terbatas 999 poin pada 6/6! *Miss V perawan yang belum pernah disentuh dan cum dua kali di wajah FC2-PPV-4437976 Tanpa sensor 2025-08-29 13:32:10 API
268401 HEYZO-2291 Gabby [Gabi] Payudara alami yang luar biasa! Makan vagina sepuasnya dengan cumshot penuh di balik masker! Ngentot HEYZO-2291 Tanpa sensor 2025-08-29 13:31:50 API
268400 H4610-KI210211 Yume Kiguchi Gadis 24 Tahun H4610-KI210211 Tanpa sensor 2025-08-29 13:31:40 API
268399 090418 090818_738 Walaupun badannya ramping, lubang memek OL jalang ini ketat banget! 090418_738 Tanpa sensor 2025-08-29 13:31:30 API
268398 110219-01 Cara Gadis Ini Bekerja ~ Putingnya Masih Mengeras ~ 110219-01 Tanpa sensor 2025-08-29 13:31:20 API
268397 C0930-HITOZUMA1298 Mami Teraguchi 28 Tahun C0930-HITOZUMA1298 Tanpa sensor 2025-08-29 13:31:10 API
268396 063020-001 Kisah Putri Gelembung Terbaik Vol.79 Mari Onodera 063020-001 Tanpa sensor 2025-08-29 13:31:00 API
268395 032619-058 Payudara Bentuk Mangkuk Milik Wanita Matang Berbikini 032619-058 Tanpa sensor 2025-08-29 13:30:50 API
268394 H0930-ORI1569 Saki Minemura Usia 33 Tahun H0930-ORI1569 Tanpa sensor 2025-08-29 13:30:40 API
268393 HEYZO-2265 Setelah 6 ronde, aku ingin ditusuk kapan saja! HEYZO-2265 Tanpa sensor 2025-08-29 13:30:30 API
268392 FC2-PPV-4462228 Erina (19) Debut di Visual Bangye: Creampie dan Enema Anal Sampai Meluap. Lalu Ada Kejutan ATM Pertama, Ditambah Tipuan Massage Elektrik dan Ejakulasi Vagina FC2-PPV-4462228 Tanpa sensor 2025-08-29 13:30:20 API